Marion, IN

5:31 AM EST on November 26, 2014 (GMT -0500)
Marion Municipal | Change Station
CLOSE
Current Station
Airport
Location: Marion,
Elevation: 856 ft
Nearby Weather Stations

Elev 856 ft 40.49 °N, 85.68 °W | Updated 16 minutes ago

Partly Cloudy
Partly Cloudy
25 °F
Feels Like 25 °F
N
0
Wind Variable Wind from North
Gusts 6 mph

Today
High -- | Low -- °F
--% Chance of Precip.
Yesterday
High -- | Low -- °F
Precip. -- in
7:41 AM 5:18 PM
Waxing Crescent, 18% visible
Pressure 30.15 in
Visibility 10.0 miles
Clouds
Dew Point 20 °F
Humidity 83%
Rainfall 0.00 in
Snow Depth Not available.
UV Not available.
Pollen .10 out of 12
Air Quality Not available.
Flu Activity Not available.
METAR KMZZ 261015Z AUTO 00000KT 10SM M04/M06 A3015 RMK AO2 T10401065

More Conditions Fewer Conditions

Pressure 30.15 in
Visibility 10.0 miles
Clouds
Dew Point 20 °F
Humidity 83%
Rainfall 0.00 in
Snow Depth Not available.
UV Not available.
Pollen .10 out of 12
Air Quality Not available.
Flu Activity Not available.
METAR KMZZ 261015Z AUTO 00000KT 10SM M04/M06 A3015 RMK AO2 T10401065

More Conditions Fewer Conditions

10-Day Weather Forecast

Almanac

Astronomy

Nov. 26, 2014 Rise Set
Actual Time
Civil Twilight
Nautical Twilight
Astronomical Twilight
Moon
Length of Visible Light
Length of Day
Tomorrow will be .
, % of the Moon is Illuminated

Today's Extremes

State Highs State Lows

Community

WunderPhotos

Upload Photos

1,773,708 photos uploaded!

WunderBlogs® & News

Nearby

Air Quality

  Air Quality AQ Index Pollutant
Not available.

Snow Depth

Station Depth Elevation

Earthquake Activity

City Distance Mag. Time & Date
Minimum magnitude displayed is 2.5.

Coastal Water Temperatures

Place Temperature

Nearby Weather Stations